Time;durP1;ratioP1;P1;durP2;ratioP2;P2;SDS_P1;SDS_P2;PMS_P1;PMS_P2;Temp;Humidity;BMP_temperature;BMP_pressure;BME280_temperature;BME280_humidity;BME280_pressure;Samples;Min_cycle;Max_cycle;Signal;HPM_P1;HPM_P2
2021/12/23 00:01:17;;;;;;;37.70;25.03;;;0.70;73.10;;;;;;5120628;28;20861;-44
2021/12/23 00:03:43;;;;;;;43.10;26.23;;;0.60;72.90;;;;;;5120474;28;20176;-44
2021/12/23 00:06:09;;;;;;;39.87;25.90;;;0.60;72.90;;;;;;5120681;28;20449;-45
2021/12/23 00:08:34;;;;;;;41.60;26.57;;;0.60;73.00;;;;;;5120677;28;20180;-44
2021/12/23 00:11:00;;;;;;;42.80;28.23;;;0.50;73.00;;;;;;5120430;28;20189;-44
2021/12/23 00:13:26;;;;;;;41.87;27.90;;;0.50;73.10;;;;;;5120974;28;20173;-45
2021/12/23 00:23:42;;;;;;;38.93;26.10;;;0.40;73.60;;;;;;5120339;28;20591;-45
2021/12/23 00:26:08;;;;;;;37.70;24.17;;;0.40;73.80;;;;;;5129076;27;20441;-44
2021/12/23 00:28:33;;;;;;;37.87;26.20;;;0.40;74.00;;;;;;5133774;27;20453;-44
2021/12/23 00:31:00;;;;;;;41.57;25.50;;;0.30;74.00;;;;;;5128790;27;20207;-45
2021/12/23 00:33:27;;;;;;;37.93;25.13;;;0.30;74.20;;;;;;5119282;28;20173;-45
2021/12/23 00:35:53;;;;;;;38.87;24.10;;;0.30;74.40;;;;;;5118947;28;20520;-45
2021/12/23 00:38:26;;;;;;;38.47;25.07;;;0.30;74.50;;;;;;5120214;28;20741;-45
2021/12/23 00:40:54;;;;;;;36.20;23.80;;;0.30;74.60;;;;;;5119893;28;20452;-45
2021/12/23 00:43:20;;;;;;;35.30;23.77;;;0.30;74.60;;;;;;5119696;28;20664;-45
2021/12/23 00:45:47;;;;;;;37.50;23.60;;;0.20;74.50;;;;;;5119754;28;20761;-45
2021/12/23 00:48:13;;;;;;;37.20;24.13;;;0.20;74.50;;;;;;5119509;28;20484;-45
2021/12/23 00:50:39;;;;;;;40.27;24.40;;;0.20;74.50;;;;;;5118694;28;20902;-45
2021/12/23 00:53:07;;;;;;;37.67;26.47;;;0.20;74.50;;;;;;5118533;28;20446;-45
2021/12/23 00:55:34;;;;;;;38.90;26.03;;;0.20;74.30;;;;;;5119411;28;20252;-45
2021/12/23 00:58:00;;;;;;;38.33;25.20;;;0.20;74.30;;;;;;5119337;28;20433;-45
2021/12/23 01:00:26;;;;;;;37.93;26.00;;;0.20;74.20;;;;;;5130088;27;20702;-45
2021/12/23 01:02:52;;;;;;;40.87;26.07;;;0.20;74.20;;;;;;5118731;27;20445;-45
2021/12/23 01:05:20;;;;;;;39.97;24.70;;;0.20;74.20;;;;;;5119421;28;20760;-44
2021/12/23 01:07:46;;;;;;;37.20;23.60;;;0.20;74.20;;;;;;5118524;28;20442;-45
2021/12/23 01:10:13;;;;;;;37.77;23.87;;;0.20;74.10;;;;;;5119225;28;20410;-45
2021/12/23 01:12:47;;;;;;;39.90;24.50;;;0.20;74.00;;;;;;5118062;28;20505;-45
2021/12/23 01:15:38;;;;;;;39.53;24.43;;;0.10;74.00;;;;;;5120758;27;20511;-45
2021/12/23 01:18:08;;;;;;;36.27;25.47;;;0.10;74.20;;;;;;5129791;27;20553;-45
2021/12/23 01:20:36;;;;;;;39.07;24.27;;;0.10;74.30;;;;;;5126130;27;20414;-45
2021/12/23 01:23:05;;;;;;;36.07;23.20;;;0.10;74.40;;;;;;5108121;27;20448;-45
2021/12/23 01:25:36;;;;;;;35.57;24.20;;;0.10;74.60;;;;;;5122738;27;20418;-45
2021/12/23 01:28:03;;;;;;;35.57;23.40;;;0.10;74.60;;;;;;5118237;28;20575;-45
2021/12/23 01:30:29;;;;;;;38.53;24.20;;;0.10;74.50;;;;;;5118979;28;20450;-45
2021/12/23 01:32:56;;;;;;;35.47;23.53;;;0.10;74.60;;;;;;5118906;28;20930;-45
2021/12/23 01:35:23;;;;;;;39.80;24.87;;;0.10;74.60;;;;;;5118821;28;20406;-45
2021/12/23 01:37:49;;;;;;;37.00;24.63;;;0.10;75.30;;;;;;5118847;28;20793;-45
2021/12/23 01:40:19;;;;;;;38.67;25.00;;;0.10;74.60;;;;;;5118409;28;20410;-45
2021/12/23 01:42:47;;;;;;;37.07;24.97;;;0.10;74.70;;;;;;5118928;28;20241;-45
2021/12/23 01:45:15;;;;;;;39.43;25.30;;;0.20;74.90;;;;;;5118817;28;20482;-45
2021/12/23 01:47:42;;;;;;;39.77;23.80;;;0.20;75.00;;;;;;5118581;28;20469;-45
2021/12/23 01:50:09;;;;;;;39.10;25.60;;;0.20;75.10;;;;;;5126171;27;20418;-45
2021/12/23 01:52:34;;;;;;;36.53;25.13;;;0.20;75.10;;;;;;5127161;27;20539;-45
2021/12/23 01:55:00;;;;;;;39.87;25.50;;;0.20;75.10;;;;;;5128589;27;20536;-45
2021/12/23 01:57:33;;;;;;;36.47;23.47;;;0.20;75.10;;;;;;5128445;27;20235;-45
2021/12/23 02:00:00;;;;;;;37.00;23.10;;;0.20;75.20;;;;;;5130139;27;20401;-45
2021/12/23 02:02:26;;;;;;;39.63;23.23;;;0.20;75.20;;;;;;5128463;27;20725;-45
2021/12/23 02:04:52;;;;;;;38.23;23.90;;;0.20;75.30;;;;;;5129165;27;20417;-45
2021/12/23 02:07:18;;;;;;;40.23;25.73;;;0.20;75.30;;;;;;5135866;27;20452;-45
2021/12/23 02:09:44;;;;;;;38.77;24.00;;;0.20;75.30;;;;;;5129409;27;20420;-45
2021/12/23 02:12:10;;;;;;;37.20;24.23;;;0.20;75.30;;;;;;5124008;27;20448;-46
2021/12/23 02:14:36;;;;;;;40.50;25.47;;;0.20;75.40;;;;;;5118386;28;20172;-46
2021/12/23 02:17:01;;;;;;;36.37;22.50;;;0.20;75.40;;;;;;5118647;28;20469;-46
2021/12/23 02:19:27;;;;;;;35.67;22.43;;;0.20;75.50;;;;;;5141511;27;20465;-45
2021/12/23 02:21:53;;;;;;;31.87;22.53;;;0.20;75.50;;;;;;5159391;27;20888;-45
2021/12/23 02:24:31;;;;;;;36.50;24.40;;;0.20;75.50;;;;;;5159457;27;20486;-47
2021/12/23 02:26:59;;;;;;;38.13;24.40;;;0.20;75.50;;;;;;5159815;27;20493;-45
2021/12/23 02:29:27;;;;;;;37.77;23.70;;;0.20;75.40;;;;;;5159429;27;20404;-46
2021/12/23 02:31:53;;;;;;;38.80;23.53;;;0.20;75.40;;;;;;5159339;27;20793;-45
2021/12/23 02:34:20;;;;;;;33.90;23.17;;;0.20;75.40;;;;;;5159448;27;20428;-46
2021/12/23 02:36:53;;;;;;;32.13;21.90;;;0.20;75.40;;;;;;5159072;27;20203;-46
2021/12/23 02:39:21;;;;;;;37.47;24.47;;;0.20;75.40;;;;;;5144073;27;20821;-46
2021/12/23 02:41:47;;;;;;;37.50;24.00;;;0.20;75.40;;;;;;5163126;27;20424;-46
2021/12/23 02:44:13;;;;;;;37.70;23.33;;;0.20;75.30;;;;;;5163489;27;20704;-45
2021/12/23 02:46:39;;;;;;;35.77;23.77;;;0.20;75.30;;;;;;5163108;27;20582;-46
2021/12/23 02:49:04;;;;;;;35.67;23.03;;;0.20;75.30;;;;;;5163668;27;20400;-46
2021/12/23 02:51:30;;;;;;;34.87;22.10;;;0.20;75.40;;;;;;5163535;27;20189;-43
2021/12/23 02:53:56;;;;;;;35.50;22.80;;;0.20;75.30;;;;;;5163863;27;20171;-43
2021/12/23 02:56:22;;;;;;;35.03;21.07;;;0.20;75.30;;;;;;5144830;27;20230;-42
2021/12/23 02:58:47;;;;;;;34.97;22.07;;;0.20;75.30;;;;;;5162718;27;20412;-43
2021/12/23 03:01:16;;;;;;;35.20;21.67;;;0.20;75.40;;;;;;5162766;27;20528;-44
2021/12/23 03:03:43;;;;;;;33.97;21.70;;;0.20;75.30;;;;;;5145374;27;20186;-44
2021/12/23 03:06:09;;;;;;;37.60;21.53;;;0.20;75.30;;;;;;5163201;27;20424;-44
2021/12/23 03:08:41;;;;;;;35.50;21.53;;;0.30;75.40;;;;;;5162756;27;20404;-44
2021/12/23 03:11:09;;;;;;;32.43;20.43;;;0.30;75.40;;;;;;5162901;27;20411;-44
2021/12/23 03:13:36;;;;;;;33.60;21.10;;;0.30;75.50;;;;;;5162865;27;20824;-44
2021/12/23 03:16:03;;;;;;;32.80;22.40;;;0.30;75.50;;;;;;5161401;27;20452;-44
2021/12/23 03:18:29;;;;;;;34.30;21.60;;;0.30;75.50;;;;;;5161915;27;20737;-44
2021/12/23 03:20:55;;;;;;;35.73;22.13;;;0.30;75.50;;;;;;5161397;27;20453;-44
2021/12/23 03:23:21;;;;;;;33.43;21.60;;;0.30;75.50;;;;;;5161275;27;20400;-44
2021/12/23 03:25:47;;;;;;;34.87;21.97;;;0.30;75.50;;;;;;5161510;27;20419;-44
2021/12/23 03:28:13;;;;;;;34.30;21.97;;;0.30;75.60;;;;;;5143261;27;20487;-44
2021/12/23 03:30:38;;;;;;;31.83;20.80;;;0.30;75.60;;;;;;5162838;27;20246;-45
2021/12/23 03:33:04;;;;;;;31.70;20.97;;;0.30;75.70;;;;;;5162687;27;20227;-45
2021/12/23 03:35:31;;;;;;;30.90;19.60;;;0.30;75.80;;;;;;5162511;27;20603;-45
2021/12/23 03:37:57;;;;;;;32.17;20.73;;;0.30;75.80;;;;;;5162262;27;20428;-45
2021/12/23 03:40:23;;;;;;;34.43;22.47;;;0.30;75.90;;;;;;5162486;27;20427;-45
2021/12/23 03:42:49;;;;;;;34.17;23.57;;;0.30;75.80;;;;;;5162462;27;20515;-45
2021/12/23 03:45:14;;;;;;;38.50;23.30;;;0.30;75.70;;;;;;5162057;27;20834;-45
2021/12/23 03:47:40;;;;;;;35.37;20.93;;;0.40;75.90;;;;;;5161983;27;20460;-45
2021/12/23 03:50:07;;;;;;;32.73;20.63;;;0.40;75.90;;;;;;5162325;27;20427;-45
2021/12/23 03:52:34;;;;;;;37.70;23.63;;;0.40;76.00;;;;;;5162385;27;20191;-45
2021/12/23 03:55:00;;;;;;;32.17;20.90;;;0.30;76.00;;;;;;5162629;27;20841;-45
2021/12/23 03:57:26;;;;;;;31.53;20.80;;;0.30;76.10;;;;;;5161848;27;20665;-45
2021/12/23 03:59:51;;;;;;;33.23;21.37;;;0.30;76.20;;;;;;5162059;27;20810;-45
2021/12/23 04:02:17;;;;;;;36.50;22.20;;;0.40;76.40;;;;;;5161710;27;20580;-45
2021/12/23 04:04:44;;;;;;;33.13;21.20;;;0.30;76.30;;;;;;5161949;27;20178;-45
2021/12/23 04:07:10;;;;;;;29.53;19.80;;;0.30;76.40;;;;;;5161803;27;20432;-45
2021/12/23 04:09:36;;;;;;;36.27;21.67;;;0.30;76.50;;;;;;5161500;27;20465;-45
2021/12/23 04:12:03;;;;;;;34.70;21.37;;;0.30;76.60;;;;;;5161667;27;20242;-45
2021/12/23 04:14:29;;;;;;;34.10;21.27;;;0.40;76.70;;;;;;5161786;27;20581;-45
2021/12/23 04:16:55;;;;;;;31.80;20.43;;;0.40;76.70;;;;;;5161279;27;20531;-45
2021/12/23 04:19:28;;;;;;;33.50;20.60;;;0.40;76.60;;;;;;5161918;27;20171;-45
2021/12/23 04:21:53;;;;;;;33.60;21.63;;;0.40;76.50;;;;;;5161273;27;20179;-45
2021/12/23 04:24:19;;;;;;;32.67;21.97;;;0.40;76.40;;;;;;5161507;27;20469;-45
2021/12/23 04:26:45;;;;;;;31.67;20.17;;;0.40;76.40;;;;;;5161549;27;20258;-45
2021/12/23 04:29:10;;;;;;;32.27;20.30;;;0.40;76.40;;;;;;5161372;27;20179;-45
2021/12/23 04:31:36;;;;;;;31.90;20.63;;;0.50;76.50;;;;;;5161190;27;20175;-45
2021/12/23 04:34:01;;;;;;;34.83;20.60;;;0.50;76.50;;;;;;5161074;27;20171;-45
2021/12/23 04:36:30;;;;;;;31.30;19.33;;;0.50;76.60;;;;;;5160943;27;20627;-45
2021/12/23 04:38:58;;;;;;;33.10;20.53;;;0.50;76.70;;;;;;5161223;27;20400;-45
2021/12/23 04:41:24;;;;;;;32.60;21.07;;;0.50;76.80;;;;;;5161113;27;20825;-45
2021/12/23 04:43:50;;;;;;;29.97;18.80;;;0.50;77.00;;;;;;5161163;27;20408;-45
2021/12/23 04:46:15;;;;;;;35.37;21.60;;;0.50;77.00;;;;;;5160757;27;20483;-45
2021/12/23 04:48:44;;;;;;;32.80;20.37;;;0.50;77.00;;;;;;5161002;27;20575;-45
2021/12/23 04:51:11;;;;;;;34.53;22.77;;;0.50;77.10;;;;;;5161082;27;20254;-45
2021/12/23 04:53:36;;;;;;;35.43;21.53;;;0.40;77.10;;;;;;5160846;27;20426;-45
2021/12/23 04:56:02;;;;;;;31.13;21.23;;;0.40;77.20;;;;;;5160556;27;20893;-45
2021/12/23 04:58:28;;;;;;;35.13;21.20;;;0.40;77.20;;;;;;5160945;27;20557;-45
2021/12/23 05:00:53;;;;;;;32.40;21.63;;;0.50;77.30;;;;;;5160039;27;20712;-45
2021/12/23 05:03:22;;;;;;;30.63;20.93;;;0.50;77.20;;;;;;5160554;27;20657;-45
2021/12/23 05:05:48;;;;;;;29.93;20.37;;;0.50;77.10;;;;;;5142757;27;20166;-48
2021/12/23 05:08:15;;;;;;;34.20;21.37;;;0.50;77.10;;;;;;5161538;27;20756;-48
2021/12/23 05:10:43;;;;;;;39.47;22.37;;;0.50;77.20;;;;;;5160866;27;20435;-48
2021/12/23 05:13:12;;;;;;;35.63;22.10;;;0.50;77.10;;;;;;5160638;27;20432;-48
2021/12/23 05:15:38;;;;;;;35.27;20.70;;;0.60;77.20;;;;;;5160041;27;20472;-48
2021/12/23 05:18:05;;;;;;;30.40;19.80;;;0.60;77.00;;;;;;5160257;27;20527;-48
2021/12/23 05:20:31;;;;;;;33.07;20.17;;;0.60;76.70;;;;;;5160402;27;20423;-48
2021/12/23 05:22:56;;;;;;;34.27;20.80;;;0.60;76.70;;;;;;5160531;27;20420;-48
2021/12/23 05:25:22;;;;;;;33.33;20.93;;;0.60;76.50;;;;;;5160656;27;20445;-48
2021/12/23 05:27:52;;;;;;;32.70;20.70;;;0.60;76.50;;;;;;5160678;27;20182;-48
2021/12/23 05:30:18;;;;;;;31.17;19.53;;;0.70;76.50;;;;;;5160800;27;20187;-48
2021/12/23 05:32:44;;;;;;;32.40;20.77;;;0.70;76.40;;;;;;5160539;27;20424;-48
2021/12/23 05:35:12;;;;;;;32.20;19.70;;;0.70;76.30;;;;;;5160528;27;20491;-48
2021/12/23 05:37:38;;;;;;;32.60;21.20;;;0.70;76.30;;;;;;5161383;27;20472;-48
2021/12/23 05:40:08;;;;;;;31.67;20.50;;;0.70;76.20;;;;;;5160446;27;20476;-48
2021/12/23 05:42:36;;;;;;;34.13;21.73;;;0.70;76.00;;;;;;5159405;27;20175;-48
2021/12/23 05:45:05;;;;;;;32.43;18.90;;;0.70;76.00;;;;;;5157790;27;20468;-48
2021/12/23 05:47:31;;;;;;;27.87;17.43;;;0.70;76.00;;;;;;5157853;27;20475;-48
2021/12/23 05:49:57;;;;;;;30.40;19.53;;;0.70;75.90;;;;;;5158015;27;20416;-48
2021/12/23 05:52:22;;;;;;;29.60;19.00;;;0.60;75.70;;;;;;5159007;27;20423;-48
2021/12/23 05:54:48;;;;;;;30.30;19.60;;;0.60;75.60;;;;;;5158940;27;20181;-48
2021/12/23 05:57:13;;;;;;;32.80;20.20;;;0.60;75.60;;;;;;5159328;27;20206;-48
2021/12/23 05:59:43;;;;;;;32.10;20.70;;;0.60;76.20;;;;;;5160820;27;20171;-48
2021/12/23 06:02:11;;;;;;;32.70;19.73;;;0.60;75.40;;;;;;5142553;27;20179;-48
2021/12/23 06:04:37;;;;;;;29.70;20.00;;;0.60;75.40;;;;;;5159968;27;20431;-48
2021/12/23 06:07:03;;;;;;;33.57;20.87;;;0.60;75.40;;;;;;5132993;27;20578;-48
2021/12/23 06:09:29;;;;;;;33.90;21.30;;;0.60;75.50;;;;;;5131029;27;20191;-48
2021/12/23 06:11:55;;;;;;;29.07;19.80;;;0.60;75.40;;;;;;5139721;27;20436;-48
2021/12/23 06:14:21;;;;;;;30.53;19.60;;;0.60;75.40;;;;;;5107883;28;20578;-48
2021/12/23 06:16:47;;;;;;;31.07;20.70;;;0.60;75.50;;;;;;5118591;28;20203;-48
2021/12/23 06:19:13;;;;;;;31.40;19.93;;;0.50;75.50;;;;;;5118241;28;20924;-48
2021/12/23 06:21:39;;;;;;;31.23;20.10;;;0.60;75.80;;;;;;5118808;28;20480;-48
2021/12/23 06:24:05;;;;;;;28.70;18.73;;;0.60;76.10;;;;;;5118072;28;20416;-48
2021/12/23 06:26:31;;;;;;;32.73;20.47;;;0.60;76.30;;;;;;5117775;28;20236;-48
2021/12/23 06:28:58;;;;;;;34.73;20.83;;;0.60;76.40;;;;;;5117621;28;20542;-48
2021/12/23 06:31:23;;;;;;;30.93;19.63;;;0.60;76.40;;;;;;5117499;28;20434;-48
2021/12/23 06:33:49;;;;;;;29.57;19.53;;;0.60;76.40;;;;;;5118268;28;20470;-48
2021/12/23 06:36:15;;;;;;;27.10;18.73;;;0.60;76.50;;;;;;5117639;28;20207;-48
2021/12/23 06:38:42;;;;;;;29.23;18.40;;;0.60;76.70;;;;;;5117028;28;20622;-48
2021/12/23 06:41:09;;;;;;;33.20;18.30;;;0.70;76.70;;;;;;5116148;28;20168;-48
2021/12/23 06:43:35;;;;;;;28.80;18.60;;;0.70;76.80;;;;;;5116028;28;20426;-48
2021/12/23 06:46:03;;;;;;;27.03;17.93;;;0.70;76.80;;;;;;5116808;28;20550;-48
2021/12/23 06:48:32;;;;;;;27.97;18.50;;;0.70;76.90;;;;;;5116139;28;20266;-48
2021/12/23 06:50:59;;;;;;;26.20;18.00;;;0.70;76.90;;;;;;5115941;28;20413;-48
2021/12/23 06:53:25;;;;;;;32.00;20.40;;;0.80;77.00;;;;;;5115872;28;20437;-47
2021/12/23 06:55:52;;;;;;;30.07;18.33;;;0.80;77.00;;;;;;5097898;28;20414;-48
2021/12/23 06:58:18;;;;;;;28.17;18.10;;;0.80;77.10;;;;;;5115950;28;20429;-48
2021/12/23 07:00:44;;;;;;;26.77;18.50;;;0.80;77.10;;;;;;5116445;28;20410;-46
2021/12/23 07:03:10;;;;;;;30.57;17.77;;;0.80;77.00;;;;;;5099298;28;20432;-48
2021/12/23 07:05:39;;;;;;;30.23;20.20;;;0.80;77.00;;;;;;5117400;28;20450;-47
2021/12/23 07:10:32;;;;;;;30.63;19.00;;;0.90;77.00;;;;;;5137155;28;20845;-48
2021/12/23 07:12:58;;;;;;;28.80;18.60;;;0.90;77.00;;;;;;5138092;28;20488;-48
2021/12/23 07:15:24;;;;;;;28.20;18.33;;;0.90;77.00;;;;;;5137615;27;20456;-47
2021/12/23 07:17:52;;;;;;;33.57;20.43;;;0.90;77.00;;;;;;5137158;28;20459;-48
2021/12/23 07:20:17;;;;;;;32.47;20.50;;;0.90;77.00;;;;;;5136820;28;20734;-48
2021/12/23 07:22:44;;;;;;;33.73;19.37;;;0.90;77.00;;;;;;5136710;28;20405;-48
2021/12/23 07:25:10;;;;;;;31.70;19.30;;;0.90;77.00;;;;;;5139323;27;20701;-48
2021/12/23 07:27:35;;;;;;;30.80;20.77;;;0.90;77.00;;;;;;5139802;27;20417;-48
2021/12/23 07:30:02;;;;;;;32.03;19.43;;;0.90;77.00;;;;;;5139991;27;20244;-48
2021/12/23 07:32:27;;;;;;;30.33;19.67;;;1.00;77.00;;;;;;5140780;27;20240;-48
2021/12/23 07:34:53;;;;;;;27.47;18.90;;;1.00;77.00;;;;;;5139748;27;20843;-48
2021/12/23 07:37:20;;;;;;;30.00;19.80;;;1.00;77.00;;;;;;5139790;27;20211;-48
2021/12/23 07:39:47;;;;;;;30.20;18.63;;;1.00;77.00;;;;;;5140124;27;20266;-48
2021/12/23 07:42:15;;;;;;;28.10;18.67;;;1.00;77.10;;;;;;5139970;27;20417;-48
2021/12/23 07:44:41;;;;;;;29.33;18.70;;;1.00;77.10;;;;;;5139411;27;20417;-48
2021/12/23 07:47:07;;;;;;;27.80;19.07;;;1.10;77.30;;;;;;5117251;28;20541;-48
2021/12/23 07:49:33;;;;;;;32.70;19.80;;;1.10;77.20;;;;;;5118109;28;20501;-48
2021/12/23 07:51:58;;;;;;;32.90;19.40;;;1.20;77.30;;;;;;5117212;28;20190;-48
2021/12/23 07:54:24;;;;;;;34.00;20.60;;;1.20;77.30;;;;;;5118833;28;20179;-48
2021/12/23 07:56:52;;;;;;;29.47;20.03;;;1.30;77.30;;;;;;5119299;28;20247;-47
2021/12/23 07:59:18;;;;;;;30.63;18.43;;;1.30;77.20;;;;;;5119045;28;20183;-48
2021/12/23 08:01:44;;;;;;;30.80;20.00;;;1.40;77.20;;;;;;5118203;28;20430;-47
2021/12/23 08:04:11;;;;;;;32.07;19.43;;;1.50;77.30;;;;;;5118848;28;20237;-48
2021/12/23 08:06:37;;;;;;;28.47;18.33;;;1.60;77.20;;;;;;5118514;28;20180;-48
2021/12/23 08:09:03;;;;;;;29.23;19.57;;;1.70;77.20;;;;;;5118011;28;20505;-48
2021/12/23 08:11:29;;;;;;;26.70;18.83;;;1.80;77.10;;;;;;5117762;28;20204;-48
2021/12/23 08:13:55;;;;;;;28.60;18.30;;;1.80;76.80;;;;;;5118569;28;20873;-48
2021/12/23 08:16:21;;;;;;;30.40;19.87;;;2.00;76.80;;;;;;5114374;28;20600;-48
2021/12/23 08:18:46;;;;;;;31.00;19.37;;;2.10;76.70;;;;;;5110206;28;20448;-48
2021/12/23 08:21:12;;;;;;;27.30;17.53;;;2.40;76.80;;;;;;5112780;28;20434;-48
2021/12/23 08:23:38;;;;;;;24.80;17.13;;;2.80;77.00;;;;;;5108188;28;20171;-48
2021/12/23 08:26:10;;;;;;;25.10;17.77;;;3.40;76.80;;;;;;5105777;28;20504;-48
2021/12/23 08:28:36;;;;;;;26.37;18.67;;;3.90;76.10;;;;;;5108053;28;20204;-48
2021/12/23 08:31:02;;;;;;;24.10;16.40;;;4.30;75.20;;;;;;5104982;28;20441;-48
2021/12/23 08:33:27;;;;;;;28.23;19.93;;;4.70;74.30;;;;;;5107688;28;20560;-48
2021/12/23 08:35:53;;;;;;;27.23;17.53;;;5.00;73.40;;;;;;5104557;28;20458;-48
2021/12/23 08:38:19;;;;;;;26.03;18.47;;;5.20;72.70;;;;;;5103276;28;20177;-48
2021/12/23 08:40:48;;;;;;;22.60;16.57;;;5.40;72.00;;;;;;5094158;28;20543;-48
2021/12/23 08:43:13;;;;;;;24.07;18.30;;;5.40;71.40;;;;;;5095831;28;20402;-49
2021/12/23 08:45:39;;;;;;;23.30;17.57;;;5.40;70.90;;;;;;5096201;28;20594;-46
2021/12/23 08:48:06;;;;;;;24.15;17.70;;;5.40;70.70;;;;;;5076361;28;1133467;-40
2021/12/23 08:50:32;;;;;;;22.20;17.57;;;5.30;70.40;;;;;;5118274;28;20259;-42
2021/12/23 08:52:58;;;;;;;24.97;17.23;;;5.30;70.30;;;;;;5119660;28;20426;-40
2021/12/23 08:55:27;;;;;;;27.10;17.73;;;5.20;70.10;;;;;;5100689;28;20422;-42
2021/12/23 08:57:54;;;;;;;22.07;15.93;;;5.20;70.20;;;;;;5117952;28;20874;-41
2021/12/23 09:00:20;;;;;;;24.77;16.87;;;5.20;70.20;;;;;;5116292;28;20862;-42
2021/12/23 09:02:48;;;;;;;26.40;16.30;;;5.20;70.20;;;;;;5096779;28;20413;-42
2021/12/23 09:05:15;;;;;;;25.30;15.93;;;5.30;70.30;;;;;;5114131;28;20507;-41
2021/12/23 09:07:41;;;;;;;24.80;16.40;;;5.30;70.30;;;;;;5114082;28;20451;-42
2021/12/23 09:10:07;;;;;;;22.90;15.93;;;5.40;70.50;;;;;;5115647;28;20517;-43
2021/12/23 09:12:33;;;;;;;20.43;15.60;;;5.50;70.50;;;;;;5097360;28;20169;-42
2021/12/23 09:14:59;;;;;;;28.13;15.30;;;5.60;70.40;;;;;;5116125;28;20426;-41
2021/12/23 09:17:26;;;;;;;22.07;16.27;;;5.70;70.30;;;;;;5117383;28;20231;-41
2021/12/23 09:19:51;;;;;;;24.43;15.77;;;5.70;70.10;;;;;;5116473;28;20176;-42
2021/12/23 09:22:18;;;;;;;20.80;15.17;;;5.70;70.00;;;;;;5117624;28;20665;-43
2021/12/23 09:24:46;;;;;;;23.30;14.60;;;5.70;70.00;;;;;;5117180;28;20176;-41
2021/12/23 09:35:06;;;;;;;17.27;13.57;;;5.60;70.60;;;;;;5116044;28;20722;-45
2021/12/23 09:37:32;;;;;;;16.00;13.30;;;5.50;71.00;;;;;;5117011;28;20786;-42
2021/12/23 09:39:59;;;;;;;17.50;12.30;;;5.50;71.60;;;;;;5118453;28;20414;-42
2021/12/23 09:42:25;;;;;;;15.27;11.57;;;5.50;72.10;;;;;;5116124;28;20179;-42
2021/12/23 09:44:51;;;;;;;15.07;11.80;;;5.50;73.20;;;;;;5115772;28;20429;-42
2021/12/23 09:47:18;;;;;;;11.10;8.20;;;5.50;72.60;;;;;;5096514;28;20489;-43
2021/12/23 09:49:45;;;;;;;9.67;5.07;;;5.60;75.70;;;;;;5095151;28;20441;-42
2021/12/23 09:52:11;;;;;;;13.43;6.33;;;6.20;94.50;;;;;;5094492;28;20698;-42
2021/12/23 09:54:38;;;;;;;9.67;5.87;;;7.10;99.30;;;;;;5094857;28;20451;-42
2021/12/23 09:57:04;;;;;;;9.50;7.23;;;8.10;99.90;;;;;;5093697;28;20466;-43
2021/12/23 09:59:31;;;;;;;7.50;5.80;;;8.90;99.90;;;;;;5096248;28;20435;-42
2021/12/23 10:01:56;;;;;;;8.47;5.97;;;9.70;99.00;;;;;;5096471;28;20457;-43
2021/12/23 10:04:22;;;;;;;8.20;4.97;;;10.30;96.70;;;;;;5095696;28;20457;-43
2021/12/23 10:06:50;;;;;;;8.87;6.63;;;10.90;95.20;;;;;;5095964;28;20202;-42
2021/12/23 10:09:36;;;;;;;9.27;5.80;;;11.40;93.90;;;;;;5095848;28;20215;-42
2021/12/23 10:13:02;;;;;;;9.43;6.17;;;11.90;92.80;;;;;;5081062;28;20445;-43
2021/12/23 10:31:09;;;;;;;5.20;4.57;;;14.20;81.50;;;;;;5115273;28;20432;-42
2021/12/23 10:33:50;;;;;;;6.13;4.50;;;14.30;80.60;;;;;;5113633;28;20414;-42
2021/12/23 10:39:21;;;;;;;5.20;4.60;;;14.50;78.70;;;;;;5115142;28;20624;-43
2021/12/23 10:41:46;;;;;;;5.27;4.60;;;14.60;77.70;;;;;;5113638;28;20550;-43
2021/12/23 10:44:12;;;;;;;5.63;4.37;;;14.60;77.00;;;;;;5113787;28;20512;-42
2021/12/23 10:46:40;;;;;;;9.73;5.30;;;14.60;76.20;;;;;;5120284;28;20246;-41
2021/12/23 10:51:58;;;;;;;4.90;4.40;;;14.80;75.30;;;;;;5135874;28;20413;-44
2021/12/23 11:00:14;;;;;;;8.17;7.13;;;15.00;71.00;;;;;;5138802;27;20427;-43
2021/12/23 11:02:43;;;;;;;8.93;7.17;;;14.70;66.60;;;;;;5140812;27;20420;-44
2021/12/23 11:08:37;;;;;;;11.60;9.13;;;13.70;60.60;;;;;;5141489;27;20407;-44
2021/12/23 11:38:38;;;;;;;10.90;9.07;;;9.70;58.10;;;;;;5139337;27;20428;-42
2021/12/23 11:42:02;;;;;;;10.10;7.87;;;9.60;58.30;;;;;;5122491;27;20479;-42
2021/12/23 11:43:58;;;;;;;9.37;8.20;;;9.40;58.50;;;;;;5107302;27;20499;-42
2021/12/23 11:46:35;;;;;;;8.97;7.50;;;9.20;58.70;;;;;;5115649;28;20462;-43
2021/12/23 11:49:07;;;;;;;8.77;7.90;;;9.10;58.90;;;;;;5117743;28;20823;-43
2021/12/23 11:51:45;;;;;;;7.90;6.90;;;9.00;59.10;;;;;;5117024;28;20434;-40
2021/12/23 11:54:14;;;;;;;8.97;7.20;;;9.00;59.30;;;;;;5117185;28;20509;-40
2021/12/23 11:56:50;;;;;;;9.07;7.40;;;8.90;59.20;;;;;;5116354;28;20529;-43
2021/12/23 11:59:17;;;;;;;7.63;6.37;;;8.90;59.30;;;;;;5117798;28;20501;-41
2021/12/23 12:01:47;;;;;;;8.83;7.10;;;9.00;59.50;;;;;;5118685;28;20437;-43
2021/12/23 12:04:22;;;;;;;8.07;6.20;;;9.00;59.50;;;;;;5101469;28;20463;-41
2021/12/23 12:06:52;;;;;;;8.30;6.87;;;9.20;59.60;;;;;;5118514;28;20432;-41
2021/12/23 12:09:23;;;;;;;7.23;6.33;;;9.30;59.60;;;;;;5118985;28;20487;-43
2021/12/23 12:12:07;;;;;;;7.83;6.20;;;9.50;59.50;;;;;;5118617;28;20457;-43
2021/12/23 12:14:34;;;;;;;6.53;5.93;;;9.50;59.20;;;;;;5116801;28;20845;-43
2021/12/23 12:17:23;;;;;;;6.70;6.00;;;9.60;59.00;;;;;;5116638;28;20480;-45
2021/12/23 12:19:59;;;;;;;6.30;5.30;;;9.60;58.70;;;;;;5117657;28;20448;-41
2021/12/23 12:22:53;;;;;;;5.97;4.87;;;9.70;58.60;;;;;;5116920;28;20811;-44
2021/12/23 12:25:26;;;;;;;8.30;6.10;;;9.70;58.50;;;;;;5116031;28;20681;-44
2021/12/23 12:28:00;;;;;;;5.83;5.23;;;9.70;58.50;;;;;;5117903;28;20421;-43
2021/12/23 12:30:43;;;;;;;8.50;5.63;;;9.60;58.50;;;;;;5119737;28;20443;-42
2021/12/23 12:33:12;;;;;;;6.77;5.57;;;9.60;58.50;;;;;;5118831;28;20418;-42
2021/12/23 12:35:41;;;;;;;8.73;6.10;;;9.60;58.60;;;;;;5117150;28;20422;-42
2021/12/23 12:38:36;;;;;;;7.93;6.50;;;9.60;58.60;;;;;;5114932;28;20461;-43
2021/12/23 12:41:16;;;;;;;7.40;5.83;;;9.70;58.60;;;;;;5113826;28;20441;-42
2021/12/23 12:43:47;;;;;;;6.73;5.87;;;9.60;58.60;;;;;;5115628;28;20420;-43
2021/12/23 12:46:44;;;;;;;7.57;6.10;;;9.60;58.50;;;;;;5120344;27;20436;-43
2021/12/23 12:49:23;;;;;;;10.93;7.40;;;9.50;58.50;;;;;;5137445;27;20416;-43
2021/12/23 12:51:50;;;;;;;8.60;6.10;;;9.50;59.10;;;;;;5137412;27;20425;-42
2021/12/23 12:54:25;;;;;;;7.07;6.27;;;9.40;58.70;;;;;;5138938;27;20703;-42
2021/12/23 12:57:05;;;;;;;11.50;7.47;;;9.40;58.70;;;;;;5120219;27;20561;-43
2021/12/23 12:59:37;;;;;;;8.73;6.37;;;9.30;58.70;;;;;;5137883;27;20419;-44
2021/12/23 13:02:19;;;;;;;8.80;7.13;;;9.20;58.70;;;;;;5138913;27;20421;-42
2021/12/23 13:04:52;;;;;;;8.07;6.40;;;9.20;58.80;;;;;;5138474;27;20424;-41
2021/12/23 13:07:31;;;;;;;10.63;7.80;;;9.10;58.90;;;;;;5137606;27;20415;-43
2021/12/23 13:10:13;;;;;;;10.37;7.30;;;9.10;59.00;;;;;;5136944;27;20478;-42
2021/12/23 13:12:46;;;;;;;7.60;6.60;;;9.00;59.10;;;;;;5136186;27;20435;-43
2021/12/23 13:15:21;;;;;;;9.57;7.67;;;9.00;59.30;;;;;;5136663;27;20413;-41
2021/12/23 13:17:54;;;;;;;10.00;7.20;;;9.00;59.40;;;;;;5117754;27;20463;-41
2021/12/23 13:20:36;;;;;;;11.47;6.57;;;8.90;59.30;;;;;;5117110;27;20457;-41
2021/12/23 13:23:12;;;;;;;11.97;8.20;;;8.90;61.20;;;;;;5135707;27;20432;-41
2021/12/23 13:26:11;;;;;;;9.90;7.93;;;8.90;60.60;;;;;;5137399;27;20447;-41
2021/12/23 13:28:42;;;;;;;10.27;8.00;;;8.90;60.00;;;;;;5134771;27;20846;-43
2021/12/23 13:31:23;;;;;;;10.60;7.90;;;8.80;59.90;;;;;;5109024;27;20486;-42
2021/12/23 13:33:53;;;;;;;11.90;8.03;;;8.80;60.00;;;;;;5137498;27;20428;-42
2021/12/23 13:36:22;;;;;;;11.20;8.17;;;8.70;60.00;;;;;;5138380;27;20464;-45
2021/12/23 13:38:56;;;;;;;10.33;7.83;;;8.70;60.30;;;;;;5139554;27;20854;-42
2021/12/23 13:41:27;;;;;;;11.13;8.00;;;8.70;60.50;;;;;;5120011;27;20428;-44
2021/12/23 13:43:55;;;;;;;7.90;6.77;;;8.60;60.60;;;;;;5138083;27;20416;-42
2021/12/23 13:46:25;;;;;;;10.13;7.40;;;8.60;60.90;;;;;;5137842;27;20456;-43
2021/12/23 13:48:57;;;;;;;8.53;7.37;;;8.60;61.00;;;;;;5138562;27;20702;-43
2021/12/23 13:51:27;;;;;;;13.00;8.90;;;8.50;61.00;;;;;;5137628;27;20819;-43
2021/12/23 13:54:15;;;;;;;8.53;7.50;;;8.50;61.30;;;;;;5119488;27;20427;-43
2021/12/23 13:56:47;;;;;;;9.50;7.57;;;8.40;61.40;;;;;;5138738;27;20908;-42
2021/12/23 13:59:21;;;;;;;10.07;8.07;;;8.40;61.60;;;;;;5119907;27;20425;-42
2021/12/23 14:02:30;;;;;;;9.13;7.47;;;8.30;61.70;;;;;;5137627;27;20515;-42
2021/12/23 14:05:10;;;;;;;9.10;7.53;;;8.30;61.90;;;;;;5137296;27;20515;-41